Time;durP1;ratioP1;P1;durP2;ratioP2;P2;SDS_P1;SDS_P2;PMS_P1;PMS_P2;Temp;Humidity;BMP_temperature;BMP_pressure;BME280_temperature;BME280_humidity;BME280_pressure;Samples;Min_cycle;Max_cycle;Signal;HPM_P1;HPM_P2
2023/05/11 00:00:26;;;;;;;57.47;2.40;;;;;;;;;;5072498;28;20995;-69
2023/05/11 00:02:54;;;;;;;57.83;2.90;;;;;;;;;;5072506;28;20475;-69
2023/05/11 00:05:21;;;;;;;57.50;2.50;;;;;;;;;;5072885;28;20451;-69
2023/05/11 00:07:48;;;;;;;57.27;2.30;;;;;;;;;;5072914;28;20815;-68
2023/05/11 00:10:16;;;;;;;57.33;2.40;;;;;;;;;;5072286;28;20467;-69
2023/05/11 00:12:43;;;;;;;57.37;2.30;;;;;;;;;;5072764;28;20458;-68
2023/05/11 00:15:11;;;;;;;57.17;2.40;;;;;;;;;;5072103;28;20459;-69
2023/05/11 00:17:38;;;;;;;57.37;2.30;;;;;;;;;;5072222;28;20447;-69
2023/05/11 00:20:05;;;;;;;57.37;2.33;;;;;;;;;;5072154;28;20467;-68
2023/05/11 00:22:32;;;;;;;57.50;2.43;;;;;;;;;;5072279;28;20578;-69
2023/05/11 00:25:00;;;;;;;57.57;2.50;;;;;;;;;;5072152;28;20469;-68
2023/05/11 00:27:28;;;;;;;57.33;2.40;;;;;;;;;;5072310;28;20443;-69
2023/05/11 00:29:55;;;;;;;57.23;2.50;;;;;;;;;;5071725;28;20463;-69
2023/05/11 00:32:23;;;;;;;57.40;2.27;;;;;;;;;;5072311;28;20447;-68
2023/05/11 00:34:50;;;;;;;57.47;2.50;;;;;;;;;;5072079;28;20452;-68
2023/05/11 00:37:17;;;;;;;57.43;2.53;;;;;;;;;;5072267;28;20450;-69
2023/05/11 00:39:44;;;;;;;57.60;3.10;;;;;;;;;;5071845;28;20844;-69
2023/05/11 00:42:11;;;;;;;57.53;2.40;;;;;;;;;;5071880;28;20479;-69
2023/05/11 00:44:40;;;;;;;57.50;2.60;;;;;;;;;;5071859;28;20452;-69
2023/05/11 00:47:08;;;;;;;57.33;2.50;;;;;;;;;;5072134;28;20447;-69
2023/05/11 00:49:35;;;;;;;57.37;2.50;;;;;;;;;;5071656;28;20460;-69
2023/05/11 00:52:02;;;;;;;57.37;2.40;;;;;;;;;;5072163;28;20451;-69
2023/05/11 00:54:29;;;;;;;57.37;2.40;;;;;;;;;;5071876;28;20444;-69
2023/05/11 00:56:57;;;;;;;57.60;2.60;;;;;;;;;;5072025;28;20447;-69
2023/05/11 00:59:24;;;;;;;57.30;2.40;;;;;;;;;;5071286;28;20799;-68
2023/05/11 01:01:52;;;;;;;57.60;3.00;;;;;;;;;;5071837;28;20487;-69
2023/05/11 01:04:20;;;;;;;57.37;2.57;;;;;;;;;;5071917;28;20445;-68
2023/05/11 01:06:51;;;;;;;58.10;2.70;;;;;;;;;;5071702;28;20451;-69
2023/05/11 01:09:25;;;;;;;57.47;2.40;;;;;;;;;;5071568;28;20447;-68
2023/05/11 01:11:54;;;;;;;57.17;2.40;;;;;;;;;;5071527;28;20998;-68
2023/05/11 01:14:23;;;;;;;57.50;2.70;;;;;;;;;;5071813;28;20451;-68
2023/05/11 01:16:55;;;;;;;57.47;2.50;;;;;;;;;;5071771;28;20447;-69
2023/05/11 01:19:25;;;;;;;57.27;2.30;;;;;;;;;;5071279;28;20454;-68
2023/05/11 01:21:53;;;;;;;57.33;3.00;;;;;;;;;;5071724;28;20862;-68
2023/05/11 01:24:26;;;;;;;57.17;2.50;;;;;;;;;;5071422;28;20459;-68
2023/05/11 01:27:23;;;;;;;57.13;2.30;;;;;;;;;;5073799;28;20967;-68
2023/05/11 01:30:05;;;;;;;57.30;2.30;;;;;;;;;;5075367;28;20454;-68
2023/05/11 01:32:34;;;;;;;57.17;2.60;;;;;;;;;;5075500;28;20449;-68
2023/05/11 01:35:05;;;;;;;57.40;2.67;;;;;;;;;;5075719;28;20466;-69
2023/05/11 01:37:33;;;;;;;57.23;2.50;;;;;;;;;;5075708;28;20453;-68
2023/05/11 01:40:02;;;;;;;57.50;2.37;;;;;;;;;;5075155;28;20471;-69
2023/05/11 01:42:31;;;;;;;57.37;2.50;;;;;;;;;;5075367;28;20483;-69
2023/05/11 01:45:00;;;;;;;57.27;2.30;;;;;;;;;;5075291;28;20478;-69
2023/05/11 01:47:28;;;;;;;57.37;2.23;;;;;;;;;;5075731;28;20474;-69
2023/05/11 01:49:58;;;;;;;57.80;3.80;;;;;;;;;;5075056;28;20470;-68
2023/05/11 01:52:26;;;;;;;57.47;2.67;;;;;;;;;;5075039;28;20451;-69
2023/05/11 01:54:55;;;;;;;56.93;2.20;;;;;;;;;;5073364;28;20936;-68
2023/05/11 01:57:22;;;;;;;57.27;2.40;;;;;;;;;;5075312;28;20840;-69
2023/05/11 01:59:50;;;;;;;57.17;2.60;;;;;;;;;;5074777;28;20444;-69
2023/05/11 02:02:18;;;;;;;57.30;2.30;;;;;;;;;;5074880;28;20485;-69
2023/05/11 02:04:46;;;;;;;57.27;2.30;;;;;;;;;;5075006;28;20450;-69
2023/05/11 02:07:15;;;;;;;57.17;2.30;;;;;;;;;;5074799;28;20447;-69
2023/05/11 02:09:43;;;;;;;57.53;2.70;;;;;;;;;;5074362;28;20997;-69
2023/05/11 02:12:11;;;;;;;57.30;2.70;;;;;;;;;;5074931;28;20530;-68
2023/05/11 02:14:40;;;;;;;57.67;2.83;;;;;;;;;;5074861;28;20454;-68
2023/05/11 02:17:07;;;;;;;56.97;2.23;;;;;;;;;;5074804;28;20447;-68
2023/05/11 02:19:34;;;;;;;57.20;2.37;;;;;;;;;;5074273;28;20455;-68
2023/05/11 02:22:02;;;;;;;57.30;2.27;;;;;;;;;;5074464;28;20454;-68
2023/05/11 02:24:31;;;;;;;57.37;2.30;;;;;;;;;;5074609;28;20463;-68
2023/05/11 02:26:59;;;;;;;57.27;2.60;;;;;;;;;;5074671;28;20447;-68
2023/05/11 02:29:26;;;;;;;57.27;2.20;;;;;;;;;;5074268;28;20828;-68
2023/05/11 02:31:56;;;;;;;57.33;2.30;;;;;;;;;;5074414;28;20844;-68
2023/05/11 02:34:25;;;;;;;57.27;2.30;;;;;;;;;;5074393;28;20458;-68
2023/05/11 02:36:54;;;;;;;57.17;2.30;;;;;;;;;;5074058;28;20447;-68
2023/05/11 02:39:22;;;;;;;57.20;2.30;;;;;;;;;;5073921;28;20452;-68
2023/05/11 02:41:53;;;;;;;56.97;2.30;;;;;;;;;;5074096;28;21003;-68
2023/05/11 02:44:20;;;;;;;57.37;2.40;;;;;;;;;;5074209;28;20490;-68
2023/05/11 02:46:48;;;;;;;57.17;2.30;;;;;;;;;;5074128;28;20451;-68
2023/05/11 02:49:16;;;;;;;57.23;2.23;;;;;;;;;;5073689;28;20794;-68
2023/05/11 02:51:45;;;;;;;57.27;2.20;;;;;;;;;;5073962;28;20471;-68
2023/05/11 02:54:13;;;;;;;57.70;3.67;;;;;;;;;;5074305;28;20447;-68
2023/05/11 02:56:40;;;;;;;57.37;2.40;;;;;;;;;;5073906;28;20451;-68
2023/05/11 02:59:08;;;;;;;57.37;2.60;;;;;;;;;;5073692;28;20469;-68
2023/05/11 03:01:36;;;;;;;57.70;2.50;;;;;;;;;;5073769;28;20470;-68
2023/05/11 03:04:04;;;;;;;57.23;2.40;;;;;;;;;;5073766;28;21003;-69
2023/05/11 03:06:32;;;;;;;57.27;2.40;;;;;;;;;;5073980;28;20454;-70
2023/05/11 03:08:59;;;;;;;57.17;2.40;;;;;;;;;;5073532;28;20447;-68
2023/05/11 03:11:26;;;;;;;57.27;2.53;;;;;;;;;;5073715;28;20467;-68
2023/05/11 03:13:54;;;;;;;56.97;2.47;;;;;;;;;;5073618;28;20452;-68
2023/05/11 03:16:23;;;;;;;57.10;2.30;;;;;;;;;;5073448;28;20443;-68
2023/05/11 03:18:50;;;;;;;57.37;2.43;;;;;;;;;;5073423;28;20964;-68
2023/05/11 03:21:20;;;;;;;57.03;2.40;;;;;;;;;;5073892;28;20467;-68
2023/05/11 03:23:48;;;;;;;57.20;2.60;;;;;;;;;;5073511;28;20483;-69
2023/05/11 03:26:17;;;;;;;57.27;2.40;;;;;;;;;;5073654;28;20440;-69
2023/05/11 03:28:45;;;;;;;57.40;2.47;;;;;;;;;;5072916;28;20444;-68
2023/05/11 03:31:12;;;;;;;57.30;2.37;;;;;;;;;;5073417;28;20840;-69
2023/05/11 03:33:40;;;;;;;57.30;2.47;;;;;;;;;;5073455;28;20444;-69
2023/05/11 03:36:10;;;;;;;57.70;3.13;;;;;;;;;;5073301;28;20451;-69
2023/05/11 03:38:37;;;;;;;57.10;2.47;;;;;;;;;;5072851;28;20447;-69
2023/05/11 03:41:05;;;;;;;57.37;2.70;;;;;;;;;;5072909;28;20473;-69
2023/05/11 03:43:32;;;;;;;57.27;2.40;;;;;;;;;;5073401;28;20489;-69
2023/05/11 03:46:01;;;;;;;57.30;2.37;;;;;;;;;;5073196;28;20452;-69
2023/05/11 03:48:28;;;;;;;57.10;2.33;;;;;;;;;;5072459;28;20479;-69
2023/05/11 03:50:57;;;;;;;57.30;2.30;;;;;;;;;;5073102;28;20499;-69
2023/05/11 03:53:25;;;;;;;57.50;3.00;;;;;;;;;;5052920;28;20802;-69
2023/05/11 03:55:53;;;;;;;57.57;2.80;;;;;;;;;;5052665;28;20447;-69
2023/05/11 03:58:21;;;;;;;57.40;2.40;;;;;;;;;;5052635;28;20491;-69
2023/05/11 04:00:48;;;;;;;57.27;2.33;;;;;;;;;;5052637;28;20514;-69
2023/05/11 04:03:15;;;;;;;57.37;2.40;;;;;;;;;;5052585;28;21011;-69
2023/05/11 04:05:42;;;;;;;57.17;2.40;;;;;;;;;;5052728;28;20444;-69
2023/05/11 04:08:11;;;;;;;57.47;2.50;;;;;;;;;;5052515;28;20449;-69
2023/05/11 04:10:38;;;;;;;57.17;2.33;;;;;;;;;;5052173;28;20476;-69
2023/05/11 04:13:05;;;;;;;57.03;2.20;;;;;;;;;;5052697;28;20446;-69
2023/05/11 04:15:34;;;;;;;57.13;2.37;;;;;;;;;;5067114;28;20443;-69
2023/05/11 04:18:01;;;;;;;57.80;2.40;;;;;;;;;;5072631;28;20463;-69
2023/05/11 04:20:28;;;;;;;57.33;2.40;;;;;;;;;;5072234;28;20487;-68
2023/05/11 04:22:55;;;;;;;57.13;2.40;;;;;;;;;;5072085;28;20479;-69
2023/05/11 04:25:24;;;;;;;57.07;2.27;;;;;;;;;;5072170;28;20477;-69
2023/05/11 04:27:51;;;;;;;57.07;2.30;;;;;;;;;;5072169;28;20958;-69
2023/05/11 04:30:19;;;;;;;57.27;2.60;;;;;;;;;;5072029;28;20477;-69
2023/05/11 04:32:46;;;;;;;57.20;2.20;;;;;;;;;;5072350;28;20821;-69
2023/05/11 04:35:13;;;;;;;57.17;2.40;;;;;;;;;;5072321;28;20453;-69
2023/05/11 04:37:40;;;;;;;57.17;2.20;;;;;;;;;;5071973;28;20454;-69
2023/05/11 04:40:08;;;;;;;57.13;2.30;;;;;;;;;;5071856;28;20479;-69
2023/05/11 04:42:37;;;;;;;57.30;2.30;;;;;;;;;;5072210;28;20459;-69
2023/05/11 04:45:04;;;;;;;57.73;2.87;;;;;;;;;;5072077;28;20447;-69
2023/05/11 04:47:31;;;;;;;57.13;2.13;;;;;;;;;;5072170;28;20837;-69
2023/05/11 04:49:58;;;;;;;57.10;2.30;;;;;;;;;;5071447;28;20459;-69
2023/05/11 04:52:25;;;;;;;57.07;2.23;;;;;;;;;;5072069;28;20760;-69
2023/05/11 04:54:52;;;;;;;56.97;2.10;;;;;;;;;;5072056;28;20822;-69
2023/05/11 04:57:19;;;;;;;57.13;2.23;;;;;;;;;;5071966;28;20442;-69
2023/05/11 04:59:48;;;;;;;57.03;2.20;;;;;;;;;;5071474;28;20832;-71
2023/05/11 05:02:15;;;;;;;57.03;2.30;;;;;;;;;;5071893;28;20651;-69
2023/05/11 05:04:42;;;;;;;57.30;2.50;;;;;;;;;;5071975;28;20498;-69
2023/05/11 05:07:09;;;;;;;57.23;2.40;;;;;;;;;;5072118;28;20884;-69
2023/05/11 05:09:36;;;;;;;57.23;2.30;;;;;;;;;;5071395;28;20444;-69
2023/05/11 05:12:03;;;;;;;57.20;2.20;;;;;;;;;;5071811;28;20477;-69
2023/05/11 05:14:30;;;;;;;56.87;2.20;;;;;;;;;;5071701;28;20450;-69
2023/05/11 05:17:00;;;;;;;57.27;2.33;;;;;;;;;;5071693;28;20451;-69
2023/05/11 05:19:27;;;;;;;57.17;2.33;;;;;;;;;;5071489;28;20489;-69
2023/05/11 05:21:54;;;;;;;57.20;2.20;;;;;;;;;;5071637;28;20979;-69
2023/05/11 05:24:21;;;;;;;56.97;2.20;;;;;;;;;;5071645;28;20491;-68
2023/05/11 05:26:48;;;;;;;56.90;2.37;;;;;;;;;;5071774;28;20814;-69
2023/05/11 05:29:15;;;;;;;57.03;2.10;;;;;;;;;;5071390;28;20447;-69
2023/05/11 05:31:42;;;;;;;56.83;2.20;;;;;;;;;;5071853;28;20473;-69
2023/05/11 05:34:11;;;;;;;56.93;2.20;;;;;;;;;;5071678;28;20444;-69
2023/05/11 05:36:38;;;;;;;56.90;2.33;;;;;;;;;;5071541;28;20454;-69
2023/05/11 05:39:08;;;;;;;56.87;2.27;;;;;;;;;;5071233;28;20448;-69
2023/05/11 05:41:36;;;;;;;56.77;2.20;;;;;;;;;;5071330;28;21056;-69
2023/05/11 05:44:03;;;;;;;56.97;2.00;;;;;;;;;;5071230;28;20475;-69
2023/05/11 05:46:30;;;;;;;56.97;2.10;;;;;;;;;;5071677;28;20740;-69
2023/05/11 05:48:57;;;;;;;56.87;2.20;;;;;;;;;;5071249;28;20451;-69
2023/05/11 05:51:26;;;;;;;57.07;2.20;;;;;;;;;;5071268;28;20987;-69
2023/05/11 05:53:53;;;;;;;56.77;2.20;;;;;;;;;;5071511;28;20444;-69
2023/05/11 05:56:20;;;;;;;56.97;2.10;;;;;;;;;;5071260;28;20454;-69
2023/05/11 05:58:47;;;;;;;56.90;2.30;;;;;;;;;;5070961;28;20455;-70
2023/05/11 06:01:14;;;;;;;56.97;2.30;;;;;;;;;;5071315;28;20477;-70
2023/05/11 06:03:43;;;;;;;57.00;2.23;;;;;;;;;;5071038;28;21011;-70
2023/05/11 06:06:10;;;;;;;56.93;2.20;;;;;;;;;;5071361;28;20455;-70
2023/05/11 06:08:39;;;;;;;57.20;2.40;;;;;;;;;;5070906;28;20443;-69
2023/05/11 06:11:06;;;;;;;56.83;2.30;;;;;;;;;;5071035;28;20836;-69
2023/05/11 06:13:33;;;;;;;56.93;1.97;;;;;;;;;;5074105;28;20982;-69
2023/05/11 06:16:00;;;;;;;57.07;2.30;;;;;;;;;;5074916;28;20443;-70
2023/05/11 06:18:28;;;;;;;58.17;2.63;;;;;;;;;;5074550;28;20451;-69
2023/05/11 06:20:55;;;;;;;56.90;2.30;;;;;;;;;;5074492;28;20531;-70
2023/05/11 06:23:22;;;;;;;56.73;2.20;;;;;;;;;;5074608;28;20465;-70
2023/05/11 06:25:50;;;;;;;57.00;2.13;;;;;;;;;;5074320;28;20467;-70
2023/05/11 06:28:17;;;;;;;56.73;2.10;;;;;;;;;;5074597;28;20458;-70
2023/05/11 06:30:45;;;;;;;56.97;2.30;;;;;;;;;;5074345;28;20847;-69
2023/05/11 06:33:13;;;;;;;57.17;2.30;;;;;;;;;;5074502;28;20483;-69
2023/05/11 06:35:40;;;;;;;56.87;2.10;;;;;;;;;;5074314;28;20447;-70
2023/05/11 06:38:07;;;;;;;57.20;2.10;;;;;;;;;;5074238;28;20538;-70
2023/05/11 06:40:34;;;;;;;56.93;2.00;;;;;;;;;;5074413;28;20550;-69
2023/05/11 06:43:03;;;;;;;56.80;2.33;;;;;;;;;;5074229;28;20451;-69
2023/05/11 06:45:30;;;;;;;56.73;2.00;;;;;;;;;;5074290;28;20506;-69
2023/05/11 06:47:57;;;;;;;57.07;1.93;;;;;;;;;;5074029;28;20447;-69
2023/05/11 06:50:24;;;;;;;57.10;2.20;;;;;;;;;;5074218;28;20469;-70
2023/05/11 06:52:51;;;;;;;57.60;3.43;;;;;;;;;;5074036;28;20453;-69
2023/05/11 06:55:18;;;;;;;56.93;2.03;;;;;;;;;;5074112;28;20978;-68
2023/05/11 06:57:45;;;;;;;57.00;2.10;;;;;;;;;;5074162;28;20443;-69
2023/05/11 07:00:14;;;;;;;57.03;2.27;;;;;;;;;;5073513;28;20477;-68
2023/05/11 07:02:42;;;;;;;56.67;2.10;;;;;;;;;;5073997;28;20447;-68
2023/05/11 07:05:09;;;;;;;56.73;2.20;;;;;;;;;;5073814;28;20558;-68
2023/05/11 07:07:36;;;;;;;56.97;2.00;;;;;;;;;;5073953;28;20443;-68
2023/05/11 07:10:03;;;;;;;56.67;2.00;;;;;;;;;;5073568;28;20475;-68
2023/05/11 07:12:30;;;;;;;57.40;2.60;;;;;;;;;;5073747;28;20944;-68
2023/05/11 07:14:57;;;;;;;56.77;2.20;;;;;;;;;;5073794;28;20549;-68
2023/05/11 07:17:27;;;;;;;56.70;2.20;;;;;;;;;;5073843;28;20967;-68
2023/05/11 07:19:54;;;;;;;57.20;2.30;;;;;;;;;;5073044;28;20995;-68
2023/05/11 07:22:21;;;;;;;58.30;2.87;;;;;;;;;;5073759;28;20451;-68
2023/05/11 07:24:48;;;;;;;60.90;2.30;;;;;;;;;;5068017;28;20825;-69
2023/05/11 07:27:16;;;;;;;56.93;2.10;;;;;;;;;;5073356;28;20211;-68
2023/05/11 07:29:43;;;;;;;56.97;2.10;;;;;;;;;;5072881;28;20455;-69
2023/05/11 07:32:10;;;;;;;56.90;2.30;;;;;;;;;;5073161;28;20453;-69
2023/05/11 07:34:39;;;;;;;56.70;2.10;;;;;;;;;;5072752;28;20453;-69
2023/05/11 07:37:07;;;;;;;56.57;1.90;;;;;;;;;;5056896;28;20452;-69
2023/05/11 07:39:34;;;;;;;56.73;1.97;;;;;;;;;;5052760;28;20448;-69
2023/05/11 07:42:01;;;;;;;56.90;2.30;;;;;;;;;;5052930;28;20979;-69
2023/05/11 07:44:28;;;;;;;56.70;2.10;;;;;;;;;;5053201;28;20515;-69
2023/05/11 07:46:57;;;;;;;57.27;2.33;;;;;;;;;;5052590;28;20956;-69
2023/05/11 07:49:24;;;;;;;56.87;2.60;;;;;;;;;;5052380;28;20460;-69
2023/05/11 07:51:52;;;;;;;56.87;2.10;;;;;;;;;;5052873;28;20551;-69
2023/05/11 07:54:19;;;;;;;56.77;2.40;;;;;;;;;;5051386;28;20822;-69
2023/05/11 07:56:47;;;;;;;56.90;2.10;;;;;;;;;;5052643;28;20458;-69
2023/05/11 07:59:14;;;;;;;56.93;2.07;;;;;;;;;;5052106;28;20816;-69
2023/05/11 08:01:41;;;;;;;57.53;3.00;;;;;;;;;;5052347;28;20464;-69
2023/05/11 08:04:08;;;;;;;56.90;2.10;;;;;;;;;;5052529;28;21091;-69
2023/05/11 08:06:35;;;;;;;59.50;2.50;;;;;;;;;;5052624;28;20450;-68
2023/05/11 08:09:04;;;;;;;57.00;2.37;;;;;;;;;;5050401;28;20459;-68
2023/05/11 08:11:31;;;;;;;56.80;2.30;;;;;;;;;;5052365;28;20463;-69
2023/05/11 08:13:58;;;;;;;56.87;2.10;;;;;;;;;;5052354;28;20831;-69
2023/05/11 08:16:25;;;;;;;56.87;2.20;;;;;;;;;;5052207;28;20444;-69
2023/05/11 08:18:52;;;;;;;57.47;2.80;;;;;;;;;;5052206;28;20448;-69
2023/05/11 08:21:19;;;;;;;56.80;2.23;;;;;;;;;;5052375;28;20471;-69
2023/05/11 08:23:46;;;;;;;57.10;2.20;;;;;;;;;;5052001;28;20982;-69
2023/05/11 08:26:16;;;;;;;56.97;2.20;;;;;;;;;;5052215;28;20458;-69
2023/05/11 08:28:43;;;;;;;56.83;2.10;;;;;;;;;;5051608;28;20449;-68
2023/05/11 08:31:10;;;;;;;57.13;2.20;;;;;;;;;;5051963;28;20981;-69
2023/05/11 08:33:37;;;;;;;56.83;2.13;;;;;;;;;;5052113;28;20513;-69
2023/05/11 08:36:05;;;;;;;57.40;2.60;;;;;;;;;;5051806;28;20837;-69
2023/05/11 08:38:33;;;;;;;56.70;2.20;;;;;;;;;;5051450;28;20449;-69
2023/05/11 08:41:02;;;;;;;56.93;2.10;;;;;;;;;;5050834;28;20472;-69
2023/05/11 08:43:30;;;;;;;56.73;2.20;;;;;;;;;;5051751;28;20525;-69
2023/05/11 08:46:01;;;;;;;57.10;2.20;;;;;;;;;;5052148;28;20488;-69
2023/05/11 08:48:28;;;;;;;56.57;2.10;;;;;;;;;;5051877;28;20456;-69
2023/05/11 08:50:56;;;;;;;56.90;2.30;;;;;;;;;;5051554;28;20537;-69
2023/05/11 08:53:23;;;;;;;56.90;2.10;;;;;;;;;;5051811;28;20451;-68
2023/05/11 08:55:51;;;;;;;56.77;2.10;;;;;;;;;;5051511;28;20827;-69
2023/05/11 08:58:21;;;;;;;56.67;2.00;;;;;;;;;;5051778;28;20478;-69
2023/05/11 09:00:50;;;;;;;57.00;2.07;;;;;;;;;;5051154;28;20981;-69
2023/05/11 09:03:17;;;;;;;57.07;2.20;;;;;;;;;;5051854;28;20448;-69
2023/05/11 09:05:46;;;;;;;56.80;2.00;;;;;;;;;;5051635;28;20584;-69
2023/05/11 09:08:13;;;;;;;56.90;2.10;;;;;;;;;;5051855;28;20459;-67
2023/05/11 09:10:41;;;;;;;57.10;2.10;;;;;;;;;;5050052;28;20839;-67
2023/05/11 09:13:08;;;;;;;56.80;2.10;;;;;;;;;;5051659;28;20539;-66
2023/05/11 09:15:35;;;;;;;56.87;2.97;;;;;;;;;;5051549;28;20511;-66
2023/05/11 09:18:03;;;;;;;56.93;2.57;;;;;;;;;;5051468;28;20444;-66
2023/05/11 09:20:31;;;;;;;56.67;2.10;;;;;;;;;;5051071;28;20468;-66
2023/05/11 09:22:58;;;;;;;57.17;2.13;;;;;;;;;;5051247;28;20454;-67
2023/05/11 09:25:26;;;;;;;56.90;2.40;;;;;;;;;;5051338;28;20514;-67
2023/05/11 09:27:53;;;;;;;57.10;2.10;;;;;;;;;;5051601;28;20448;-66
2023/05/11 09:30:21;;;;;;;56.87;2.20;;;;;;;;;;5051070;28;20498;-66
2023/05/11 09:32:50;;;;;;;56.87;2.20;;;;;;;;;;5051267;28;20452;-66
2023/05/11 09:35:22;;;;;;;57.03;2.20;;;;;;;;;;5051194;28;20439;-69
2023/05/11 09:38:03;;;;;;;56.83;2.10;;;;;;;;;;5051385;28;20858;-66
2023/05/11 09:40:30;;;;;;;56.90;2.20;;;;;;;;;;5050982;28;20474;-67
2023/05/11 09:42:58;;;;;;;57.80;3.17;;;;;;;;;;5050077;28;20459;-66
2023/05/11 09:45:41;;;;;;;56.67;2.10;;;;;;;;;;5051113;28;20574;-66
2023/05/11 09:48:14;;;;;;;56.70;2.10;;;;;;;;;;5053714;28;20448;-66
2023/05/11 09:50:43;;;;;;;56.87;2.00;;;;;;;;;;5055196;28;20471;-66
2023/05/11 09:53:10;;;;;;;56.80;2.00;;;;;;;;;;5055145;28;20450;-66
2023/05/11 09:55:38;;;;;;;56.80;2.40;;;;;;;;;;5055022;28;20448;-66
2023/05/11 09:58:05;;;;;;;56.80;2.00;;;;;;;;;;5054722;28;20955;-66
2023/05/11 10:00:32;;;;;;;57.00;2.00;;;;;;;;;;5054616;28;20471;-66
2023/05/11 10:03:01;;;;;;;56.87;2.00;;;;;;;;;;5055045;28;20454;-66
2023/05/11 10:05:30;;;;;;;56.70;2.10;;;;;;;;;;5054962;28;20480;-69
2023/05/11 10:07:58;;;;;;;56.87;1.97;;;;;;;;;;5054744;28;20948;-69
2023/05/11 10:10:26;;;;;;;56.80;2.00;;;;;;;;;;5054420;28;20891;-69
2023/05/11 10:12:54;;;;;;;56.70;2.00;;;;;;;;;;5056146;28;20867;-69
2023/05/11 10:15:24;;;;;;;56.77;2.30;;;;;;;;;;5074832;28;20533;-69
2023/05/11 10:17:51;;;;;;;56.77;1.80;;;;;;;;;;5074735;28;20451;-69
2023/05/11 10:20:19;;;;;;;56.90;2.30;;;;;;;;;;5074095;28;20542;-69
2023/05/11 10:22:46;;;;;;;56.87;2.20;;;;;;;;;;5074939;28;20448;-69
2023/05/11 10:25:15;;;;;;;56.80;2.20;;;;;;;;;;5074294;28;20870;-69
2023/05/11 10:27:43;;;;;;;56.97;2.07;;;;;;;;;;5074218;28;20458;-69
2023/05/11 10:30:12;;;;;;;57.07;2.00;;;;;;;;;;5074009;28;20463;-69
2023/05/11 10:32:39;;;;;;;57.10;2.30;;;;;;;;;;5074763;28;20451;-69
2023/05/11 10:35:07;;;;;;;56.90;2.20;;;;;;;;;;5074369;28;20470;-69
2023/05/11 10:37:34;;;;;;;56.77;2.17;;;;;;;;;;5074191;28;20456;-69
2023/05/11 10:40:01;;;;;;;57.40;2.10;;;;;;;;;;5073450;28;20994;-69
2023/05/11 10:42:45;;;;;;;57.00;2.00;;;;;;;;;;5074542;28;20447;-69
2023/05/11 10:45:17;;;;;;;56.87;2.10;;;;;;;;;;5071824;28;20490;-69
2023/05/11 10:48:08;;;;;;;56.70;2.00;;;;;;;;;;5074118;28;20444;-69
2023/05/11 10:50:44;;;;;;;56.77;1.90;;;;;;;;;;5073509;28;20471;-69
2023/05/11 10:53:24;;;;;;;56.67;2.03;;;;;;;;;;5074048;28;20451;-69
2023/05/11 10:56:04;;;;;;;56.70;2.00;;;;;;;;;;5073709;28;20870;-69
2023/05/11 10:58:39;;;;;;;57.00;2.10;;;;;;;;;;5073245;28;20497;-69
2023/05/11 11:01:21;;;;;;;56.73;2.00;;;;;;;;;;5073395;28;20831;-69
2023/05/11 11:03:57;;;;;;;56.60;1.87;;;;;;;;;;5074023;28;20493;-69
2023/05/11 11:06:24;;;;;;;56.87;2.30;;;;;;;;;;5073719;28;20483;-69
2023/05/11 11:08:58;;;;;;;56.93;2.60;;;;;;;;;;5073386;28;20456;-69
2023/05/11 11:11:29;;;;;;;58.00;2.93;;;;;;;;;;5073641;28;20573;-69
2023/05/11 11:14:00;;;;;;;57.10;2.20;;;;;;;;;;5073634;28;20444;-69
2023/05/11 11:16:27;;;;;;;58.67;3.63;;;;;;;;;;5071831;28;20462;-69
2023/05/11 11:19:18;;;;;;;56.90;2.00;;;;;;;;;;5073241;28;20900;-69
2023/05/11 11:21:47;;;;;;;56.60;1.90;;;;;;;;;;5072984;28;21042;-69
2023/05/11 11:24:29;;;;;;;56.87;1.97;;;;;;;;;;5073379;28;20459;-69
2023/05/11 11:26:56;;;;;;;56.80;2.20;;;;;;;;;;5073399;28;20483;-69
2023/05/11 11:29:24;;;;;;;56.77;2.10;;;;;;;;;;5072810;28;20543;-69
2023/05/11 11:31:52;;;;;;;56.67;1.93;;;;;;;;;;5073095;28;20490;-69
2023/05/11 11:34:38;;;;;;;56.73;2.00;;;;;;;;;;5073083;28;20959;-69
2023/05/11 11:37:07;;;;;;;56.67;1.90;;;;;;;;;;5073355;28;20443;-69
2023/05/11 11:39:53;;;;;;;56.90;2.30;;;;;;;;;;5072702;28;20493;-69
2023/05/11 11:42:32;;;;;;;56.83;2.03;;;;;;;;;;5073079;28;20454;-70
2023/05/11 11:45:14;;;;;;;56.80;2.10;;;;;;;;;;5073017;28;20474;-69
2023/05/11 11:47:43;;;;;;;57.10;2.30;;;;;;;;;;5070823;28;20462;-69
2023/05/11 11:50:12;;;;;;;56.77;1.90;;;;;;;;;;5072529;28;20472;-69
2023/05/11 11:52:39;;;;;;;56.70;2.00;;;;;;;;;;5073162;28;20481;-69
2023/05/11 11:55:06;;;;;;;56.90;2.20;;;;;;;;;;5072609;28;20830;-69
2023/05/11 11:57:45;;;;;;;56.80;2.20;;;;;;;;;;5072511;28;20442;-69
2023/05/11 12:00:15;;;;;;;57.03;2.33;;;;;;;;;;5072198;28;20467;-69
2023/05/11 12:02:44;;;;;;;56.53;2.00;;;;;;;;;;5072555;28;20456;-69
2023/05/11 12:05:12;;;;;;;56.87;1.90;;;;;;;;;;5072392;28;20982;-69
2023/05/11 12:07:41;;;;;;;56.87;2.20;;;;;;;;;;5072541;28;20453;-69
2023/05/11 12:10:10;;;;;;;56.80;1.90;;;;;;;;;;5071812;28;20467;-69
2023/05/11 12:12:38;;;;;;;56.73;2.00;;;;;;;;;;5072699;28;20451;-69
2023/05/11 12:15:06;;;;;;;56.97;2.20;;;;;;;;;;5072317;28;20824;-69
2023/05/11 12:17:34;;;;;;;56.77;2.10;;;;;;;;;;5071885;28;20443;-69
2023/05/11 12:20:19;;;;;;;56.77;2.10;;;;;;;;;;5070652;28;20471;-70
2023/05/11 12:22:47;;;;;;;56.87;1.97;;;;;;;;;;5072655;28;20545;-69
2023/05/11 12:25:16;;;;;;;57.03;2.37;;;;;;;;;;5072180;28;20545;-69
2023/05/11 12:27:47;;;;;;;56.90;2.10;;;;;;;;;;5072369;28;20455;-70
2023/05/11 12:30:20;;;;;;;56.77;2.00;;;;;;;;;;5072385;28;20545;-69
2023/05/11 12:32:47;;;;;;;56.93;2.10;;;;;;;;;;5072477;28;20447;-69
2023/05/11 12:35:15;;;;;;;56.73;1.90;;;;;;;;;;5072197;28;20451;-70
2023/05/11 12:37:43;;;;;;;56.90;2.00;;;;;;;;;;5072266;28;20447;-69
2023/05/11 12:40:11;;;;;;;56.87;2.00;;;;;;;;;;5071898;28;20475;-70
2023/05/11 12:42:38;;;;;;;56.97;2.10;;;;;;;;;;5072056;28;20462;-70
2023/05/11 12:45:06;;;;;;;56.90;2.03;;;;;;;;;;5071869;28;20458;-69
2023/05/11 12:47:33;;;;;;;57.00;2.10;;;;;;;;;;5072123;28;20969;-70
2023/05/11 12:50:01;;;;;;;56.73;1.90;;;;;;;;;;5071615;28;20459;-70
2023/05/11 12:52:29;;;;;;;56.93;2.00;;;;;;;;;;5071942;28;20444;-70
2023/05/11 12:54:58;;;;;;;56.70;2.03;;;;;;;;;;5071994;28;20448;-70
2023/05/11 12:57:26;;;;;;;56.97;2.10;;;;;;;;;;5071906;28;20997;-69
2023/05/11 13:00:06;;;;;;;57.07;1.97;;;;;;;;;;5071846;28;20447;-69
2023/05/11 13:02:34;;;;;;;56.70;1.83;;;;;;;;;;5072230;28;20814;-70
2023/05/11 13:05:10;;;;;;;56.67;1.90;;;;;;;;;;5071922;28;20568;-70
2023/05/11 13:07:39;;;;;;;56.27;2.00;;;;;;;;;;5071726;28;20528;-70
2023/05/11 13:10:07;;;;;;;56.87;2.20;;;;;;;;;;5071225;28;20516;-70
2023/05/11 13:12:34;;;;;;;56.90;2.17;;;;;;;;;;5071944;28;20819;-70
2023/05/11 13:15:10;;;;;;;56.90;1.80;;;;;;;;;;5071994;28;20443;-70
2023/05/11 13:17:38;;;;;;;57.00;1.90;;;;;;;;;;5071785;28;20451;-70
2023/05/11 13:20:15;;;;;;;56.77;1.90;;;;;;;;;;5071314;28;20836;-70
2023/05/11 13:22:44;;;;;;;57.20;2.47;;;;;;;;;;5074059;28;20443;-70
2023/05/11 13:25:11;;;;;;;57.10;2.30;;;;;;;;;;5075790;28;20631;-70
2023/05/11 13:27:38;;;;;;;56.90;2.00;;;;;;;;;;5075872;28;20479;-70
2023/05/11 13:30:06;;;;;;;56.60;2.00;;;;;;;;;;5075279;28;20993;-70
2023/05/11 13:32:34;;;;;;;56.60;1.80;;;;;;;;;;5075690;28;20451;-70
2023/05/11 13:35:02;;;;;;;57.30;2.13;;;;;;;;;;5075448;28;20508;-70
2023/05/11 13:37:29;;;;;;;56.57;1.80;;;;;;;;;;5075516;28;21049;-67
2023/05/11 13:39:57;;;;;;;57.00;2.20;;;;;;;;;;5075262;28;20471;-67
2023/05/11 13:42:24;;;;;;;56.83;2.07;;;;;;;;;;5075512;28;20940;-67
2023/05/11 13:44:52;;;;;;;56.77;2.00;;;;;;;;;;5075491;28;20451;-67
2023/05/11 13:47:19;;;;;;;56.97;1.90;;;;;;;;;;5075659;28;20479;-67
2023/05/11 13:49:46;;;;;;;56.80;2.00;;;;;;;;;;5074794;28;20835;-67
2023/05/11 13:52:14;;;;;;;56.57;2.00;;;;;;;;;;5075441;28;20478;-67
2023/05/11 13:54:41;;;;;;;57.20;2.20;;;;;;;;;;5075294;28;20490;-69
2023/05/11 13:57:09;;;;;;;56.70;2.53;;;;;;;;;;5075164;28;20445;-70
2023/05/11 13:59:36;;;;;;;56.60;2.33;;;;;;;;;;5074694;28;20447;-67
2023/05/11 14:02:03;;;;;;;56.53;1.90;;;;;;;;;;5074987;28;20454;-67
2023/05/11 14:04:30;;;;;;;56.97;2.10;;;;;;;;;;5074998;28;20965;-67
2023/05/11 14:06:58;;;;;;;56.77;2.20;;;;;;;;;;5075004;28;21066;-67
2023/05/11 14:09:25;;;;;;;56.77;1.90;;;;;;;;;;5074904;28;20831;-67
2023/05/11 14:11:52;;;;;;;56.47;1.70;;;;;;;;;;5074843;28;20850;-67
2023/05/11 14:14:21;;;;;;;56.67;2.47;;;;;;;;;;5074807;28;20454;-67
2023/05/11 14:16:48;;;;;;;57.70;2.67;;;;;;;;;;5074672;28;20443;-67
2023/05/11 14:19:15;;;;;;;56.70;2.00;;;;;;;;;;5074283;28;20450;-67
2023/05/11 14:21:42;;;;;;;56.77;1.90;;;;;;;;;;5074743;28;20561;-67
2023/05/11 14:24:09;;;;;;;56.57;1.90;;;;;;;;;;5074594;28;20459;-67
2023/05/11 14:26:36;;;;;;;56.17;2.13;;;;;;;;;;5074443;28;21030;-67
2023/05/11 14:29:03;;;;;;;56.20;1.83;;;;;;;;;;5074111;28;20958;-69
2023/05/11 14:31:32;;;;;;;56.80;2.10;;;;;;;;;;5074649;28;20472;-70
2023/05/11 14:33:59;;;;;;;56.33;1.70;;;;;;;;;;5074092;28;20971;-70
2023/05/11 14:36:26;;;;;;;56.80;1.90;;;;;;;;;;5074575;28;20451;-70
2023/05/11 14:38:53;;;;;;;56.90;1.90;;;;;;;;;;5074348;28;20528;-70